Webcam Flughafen St.Gallen-Altenrhein

Live-Bilder und Zeitraffer LSZR / ACH.

 

Live aus Altenrhein
LIVE
LSZR 240950Z 09004KT 9999 SCT100 18/13 Q1010 NOSIG RMK G
Zeitraffer heute
2020-09-24 00:14:49
LSZR 232150Z AUTO 19005KT 160V220 CAVOK 18/12 Q1009